Time;durP1;ratioP1;P1;durP2;ratioP2;P2;SDS_P1;SDS_P2;PMS_P1;PMS_P2;Temp;Humidity;BMP_temperature;BMP_pressure;BME280_temperature;BME280_humidity;BME280_pressure;Samples;Min_cycle;Max_cycle;Signal;HPM_P1;HPM_P2
2021/10/11 00:01:34;;;;;;;10.70;9.03;;;11.00;57.70;;;;;;5051960;28;20192;-47
2021/10/11 00:04:00;;;;;;;12.97;9.27;;;10.80;57.60;;;;;;5051511;28;20877;-45
2021/10/11 00:06:25;;;;;;;10.63;8.53;;;10.80;58.00;;;;;;5051757;28;20595;-44
2021/10/11 00:08:51;;;;;;;9.70;7.67;;;10.70;58.00;;;;;;5049555;28;20184;-45
2021/10/11 00:11:16;;;;;;;10.63;9.27;;;10.60;58.40;;;;;;5051408;28;20192;-48
2021/10/11 00:13:42;;;;;;;10.27;8.70;;;10.60;58.20;;;;;;5051042;28;20193;-46
2021/10/11 00:16:08;;;;;;;11.93;9.40;;;10.60;58.50;;;;;;5051519;28;20220;-45
2021/10/11 00:18:33;;;;;;;9.40;8.00;;;10.60;58.20;;;;;;5051705;28;20201;-45
2021/10/11 00:20:59;;;;;;;11.90;8.90;;;10.60;58.30;;;;;;5050517;28;20192;-45
2021/10/11 00:23:24;;;;;;;13.43;8.80;;;10.50;58.30;;;;;;5051736;28;20196;-46
2021/10/11 00:25:50;;;;;;;10.60;9.20;;;10.40;58.40;;;;;;5050980;28;20790;-45
2021/10/11 00:28:16;;;;;;;10.70;8.90;;;10.10;59.30;;;;;;5051687;28;20275;-45
2021/10/11 00:30:41;;;;;;;12.60;9.07;;;10.10;59.40;;;;;;5050561;28;20667;-46
2021/10/11 00:33:07;;;;;;;10.70;7.90;;;10.20;59.10;;;;;;5051545;28;20270;-45
2021/10/11 00:35:33;;;;;;;9.27;8.07;;;10.10;59.00;;;;;;5048999;28;20316;-46
2021/10/11 00:37:59;;;;;;;14.50;8.77;;;10.20;59.10;;;;;;5051545;28;20815;-45
2021/10/11 00:40:25;;;;;;;14.40;8.80;;;10.20;59.00;;;;;;5050441;28;20510;-45
2021/10/11 00:42:51;;;;;;;11.23;9.63;;;9.90;60.70;;;;;;5051463;28;20189;-44
2021/10/11 00:45:16;;;;;;;15.77;10.27;;;9.90;60.90;;;;;;5050661;28;20227;-44
2021/10/11 00:47:42;;;;;;;12.50;8.90;;;10.00;59.90;;;;;;5051498;28;20242;-45
2021/10/11 00:50:08;;;;;;;8.67;7.80;;;10.00;59.40;;;;;;5050146;28;20264;-45
2021/10/11 00:52:34;;;;;;;10.00;8.47;;;10.20;59.00;;;;;;5051403;28;20192;-45
2021/10/11 00:55:00;;;;;;;12.13;9.33;;;10.30;58.50;;;;;;5050649;28;20492;-45
2021/10/11 00:57:26;;;;;;;10.93;9.17;;;10.30;58.60;;;;;;5049726;28;20427;-46
2021/10/11 00:59:51;;;;;;;10.70;9.27;;;10.20;58.70;;;;;;5050264;28;20710;-45
2021/10/11 01:02:17;;;;;;;12.40;9.00;;;10.20;58.80;;;;;;5049974;28;20214;-44
2021/10/11 01:04:43;;;;;;;12.70;9.43;;;10.20;58.80;;;;;;5050589;28;20200;-44
2021/10/11 01:07:10;;;;;;;14.13;9.33;;;10.30;58.60;;;;;;5051125;28;20949;-46
2021/10/11 01:09:36;;;;;;;10.87;8.23;;;10.40;58.40;;;;;;5050116;28;20192;-46
2021/10/11 01:12:02;;;;;;;10.50;8.27;;;10.40;58.00;;;;;;5051044;28;20458;-44
2021/10/11 01:14:28;;;;;;;10.37;8.30;;;10.30;57.80;;;;;;5050207;28;20307;-44
2021/10/11 01:16:55;;;;;;;10.60;8.97;;;10.30;58.10;;;;;;5050838;28;20531;-44
2021/10/11 01:19:20;;;;;;;10.43;8.73;;;10.10;58.40;;;;;;5050189;28;20801;-44
2021/10/11 01:21:46;;;;;;;13.77;8.77;;;9.70;60.30;;;;;;5051161;28;20419;-45
2021/10/11 01:24:11;;;;;;;11.43;9.40;;;9.50;61.10;;;;;;5050348;28;20204;-44
2021/10/11 01:26:41;;;;;;;9.50;8.50;;;9.40;61.80;;;;;;5050604;28;20208;-45
2021/10/11 01:29:08;;;;;;;12.60;8.60;;;9.40;61.90;;;;;;5048361;28;20218;-44
2021/10/11 01:31:34;;;;;;;10.77;8.33;;;9.60;61.60;;;;;;5052263;28;20422;-44
2021/10/11 01:34:00;;;;;;;13.00;9.83;;;9.50;61.20;;;;;;5053625;28;20442;-44
2021/10/11 01:36:27;;;;;;;9.20;8.23;;;9.70;60.90;;;;;;5054671;28;20480;-45
2021/10/11 01:38:57;;;;;;;9.53;8.10;;;9.60;60.70;;;;;;5054082;28;20427;-44
2021/10/11 01:41:23;;;;;;;11.00;8.77;;;9.70;60.80;;;;;;5054357;28;20437;-44
2021/10/11 01:43:49;;;;;;;12.90;9.30;;;9.60;60.80;;;;;;5053803;28;20457;-48
2021/10/11 01:46:15;;;;;;;11.57;8.93;;;9.80;60.60;;;;;;5054387;28;20423;-44
2021/10/11 01:48:40;;;;;;;10.53;8.63;;;9.50;60.60;;;;;;5053570;28;20474;-44
2021/10/11 01:51:06;;;;;;;12.87;9.80;;;9.50;61.20;;;;;;5054082;28;20272;-45
2021/10/11 01:53:32;;;;;;;11.87;10.10;;;9.80;61.10;;;;;;5054084;28;20430;-44
2021/10/11 01:55:57;;;;;;;10.33;8.33;;;9.60;60.40;;;;;;5051812;28;20711;-44
2021/10/11 01:58:23;;;;;;;11.97;8.47;;;9.70;60.60;;;;;;5052324;28;20192;-45
2021/10/11 02:00:49;;;;;;;11.30;8.67;;;9.80;60.40;;;;;;5053409;28;20188;-44
2021/10/11 02:03:14;;;;;;;11.50;8.23;;;9.90;59.80;;;;;;5053958;28;20224;-46
2021/10/11 02:05:40;;;;;;;10.57;8.50;;;9.80;60.10;;;;;;5053504;28;20543;-44
2021/10/11 02:08:05;;;;;;;9.60;8.17;;;9.80;60.00;;;;;;5053937;28;20200;-46
2021/10/11 02:10:31;;;;;;;10.00;8.60;;;10.00;58.90;;;;;;5053119;28;20192;-44
2021/10/11 02:12:58;;;;;;;9.60;8.60;;;9.90;59.30;;;;;;5053571;28;20201;-44
2021/10/11 02:15:24;;;;;;;14.37;8.23;;;9.90;59.50;;;;;;5053284;28;20224;-44
2021/10/11 02:17:49;;;;;;;10.37;9.13;;;10.00;58.10;;;;;;5053904;28;20538;-45
2021/10/11 02:20:15;;;;;;;10.33;8.13;;;9.70;59.10;;;;;;5052356;28;20196;-45
2021/10/11 02:22:41;;;;;;;16.00;9.10;;;9.70;59.70;;;;;;5052630;28;20207;-44
2021/10/11 02:25:07;;;;;;;13.20;9.40;;;9.70;59.50;;;;;;5053088;28;20192;-45
2021/10/11 02:27:33;;;;;;;10.03;8.53;;;9.70;59.70;;;;;;5053584;28;20185;-44
2021/10/11 02:29:59;;;;;;;11.20;9.07;;;9.50;59.70;;;;;;5052801;28;20432;-46
2021/10/11 02:32:24;;;;;;;10.67;9.23;;;9.50;60.40;;;;;;5053435;28;20197;-45
2021/10/11 02:34:50;;;;;;;11.40;8.27;;;9.60;60.00;;;;;;5052722;28;20231;-45
2021/10/11 02:37:16;;;;;;;12.27;9.63;;;9.80;59.80;;;;;;5053532;28;20189;-48
2021/10/11 02:39:42;;;;;;;10.27;9.13;;;9.90;59.40;;;;;;5052757;28;20199;-44
2021/10/11 02:42:07;;;;;;;10.40;8.90;;;9.90;59.20;;;;;;5052660;28;20479;-44
2021/10/11 02:44:33;;;;;;;11.53;8.90;;;9.90;58.90;;;;;;5052509;28;20195;-44
2021/10/11 02:46:58;;;;;;;10.87;8.97;;;9.80;59.00;;;;;;5051660;28;20702;-44
2021/10/11 02:49:24;;;;;;;11.50;8.70;;;9.60;59.00;;;;;;5052116;28;20237;-44
2021/10/11 02:51:50;;;;;;;11.73;8.80;;;9.30;59.30;;;;;;5053393;28;20200;-44
2021/10/11 02:54:17;;;;;;;9.73;8.73;;;9.00;60.90;;;;;;5052683;28;20299;-44
2021/10/11 02:56:45;;;;;;;10.20;8.23;;;8.90;61.90;;;;;;5051442;28;20236;-45
2021/10/11 02:59:12;;;;;;;10.37;8.80;;;8.90;61.80;;;;;;5052009;28;20423;-45
2021/10/11 03:01:38;;;;;;;12.10;9.03;;;9.10;61.30;;;;;;5052937;28;20758;-44
2021/10/11 03:04:03;;;;;;;15.97;8.97;;;9.30;60.50;;;;;;5052351;28;20514;-47
2021/10/11 03:06:29;;;;;;;10.00;8.07;;;9.20;60.20;;;;;;5052808;28;20518;-46
2021/10/11 03:08:55;;;;;;;9.97;8.80;;;9.30;59.90;;;;;;5051927;28;20204;-46
2021/10/11 03:11:20;;;;;;;10.50;8.30;;;9.40;60.00;;;;;;5052865;28;20686;-44
2021/10/11 03:13:46;;;;;;;10.17;9.10;;;9.20;59.80;;;;;;5050431;28;20783;-45
2021/10/11 03:16:12;;;;;;;9.73;7.87;;;9.10;60.20;;;;;;5052469;28;20224;-46
2021/10/11 03:18:38;;;;;;;9.80;7.73;;;9.00;60.60;;;;;;5052288;28;20249;-44
2021/10/11 03:21:03;;;;;;;9.20;8.30;;;9.10;60.70;;;;;;5051903;28;20200;-45
2021/10/11 03:23:29;;;;;;;9.80;8.20;;;9.20;60.00;;;;;;5052925;28;20496;-45
2021/10/11 03:25:55;;;;;;;10.07;8.13;;;9.30;59.80;;;;;;5051973;28;20275;-45
2021/10/11 03:28:20;;;;;;;11.53;8.53;;;9.20;59.60;;;;;;5052612;28;20189;-45
2021/10/11 03:30:46;;;;;;;11.53;8.80;;;9.30;59.70;;;;;;5051684;28;20193;-45
2021/10/11 03:33:12;;;;;;;11.83;8.70;;;9.30;59.40;;;;;;5052133;28;20203;-44
2021/10/11 03:35:38;;;;;;;10.10;9.10;;;9.40;59.20;;;;;;5051635;28;20474;-45
2021/10/11 03:38:04;;;;;;;12.87;9.23;;;9.30;59.50;;;;;;5052382;28;20605;-44
2021/10/11 03:40:30;;;;;;;11.73;8.73;;;9.40;59.40;;;;;;5049430;28;20185;-46
2021/10/11 03:42:55;;;;;;;12.20;8.57;;;9.50;59.20;;;;;;5051955;28;20836;-45
2021/10/11 03:45:21;;;;;;;11.43;8.90;;;9.30;59.20;;;;;;5051766;28;20427;-47
2021/10/11 03:47:47;;;;;;;15.83;8.67;;;9.00;60.00;;;;;;5052399;28;20203;-45
2021/10/11 03:50:12;;;;;;;10.63;8.57;;;8.90;60.70;;;;;;5050704;28;20236;-45
2021/10/11 03:52:38;;;;;;;11.90;8.47;;;8.80;61.30;;;;;;5051630;28;20233;-45
2021/10/11 03:55:04;;;;;;;13.13;9.10;;;8.60;61.50;;;;;;5050612;28;20228;-47
2021/10/11 03:57:29;;;;;;;10.73;8.50;;;8.70;61.70;;;;;;5049828;28;20193;-46
2021/10/11 03:59:55;;;;;;;11.63;8.30;;;8.80;61.30;;;;;;5050904;28;20423;-45
2021/10/11 04:02:21;;;;;;;13.13;9.73;;;8.70;61.00;;;;;;5052149;28;20189;-45
2021/10/11 04:04:46;;;;;;;12.13;9.97;;;8.70;61.40;;;;;;5051260;28;20197;-47
2021/10/11 04:07:15;;;;;;;11.20;9.03;;;8.60;61.30;;;;;;5050227;28;20197;-44
2021/10/11 04:09:42;;;;;;;10.10;9.10;;;8.50;61.70;;;;;;5050714;28;20207;-44
2021/10/11 04:12:21;;;;;;;12.17;9.47;;;8.30;62.30;;;;;;5051640;28;20423;-45
2021/10/11 04:14:53;;;;;;;11.73;9.90;;;8.10;62.70;;;;;;5050854;28;20486;-47
2021/10/11 04:17:18;;;;;;;10.37;8.40;;;8.30;63.10;;;;;;5052179;28;20423;-44
2021/10/11 04:19:44;;;;;;;12.80;9.60;;;8.20;62.70;;;;;;5050826;28;20453;-44
2021/10/11 04:22:09;;;;;;;12.97;10.97;;;8.00;63.60;;;;;;5051494;28;20577;-45
2021/10/11 04:24:35;;;;;;;13.13;9.67;;;8.20;63.30;;;;;;5050935;28;20196;-45
2021/10/11 04:27:01;;;;;;;15.30;10.37;;;8.30;63.60;;;;;;5051681;28;20197;-44
2021/10/11 04:29:26;;;;;;;16.60;10.23;;;8.40;62.90;;;;;;5050670;28;20200;-46
2021/10/11 04:31:52;;;;;;;11.80;9.50;;;8.60;62.50;;;;;;5051502;28;20341;-47
2021/10/11 04:34:17;;;;;;;11.10;9.87;;;8.70;62.10;;;;;;5031818;28;20227;-44
2021/10/11 04:36:43;;;;;;;14.50;10.37;;;8.70;62.30;;;;;;5051742;28;20281;-47
2021/10/11 04:39:09;;;;;;;13.30;9.77;;;8.70;62.10;;;;;;5050789;28;20188;-44
2021/10/11 04:41:34;;;;;;;15.17;11.23;;;9.00;62.10;;;;;;5051300;28;20305;-47
2021/10/11 04:44:00;;;;;;;15.80;10.20;;;8.90;61.80;;;;;;5050689;28;20223;-44
2021/10/11 04:46:25;;;;;;;11.63;9.73;;;9.00;62.00;;;;;;5051305;28;20220;-44
2021/10/11 04:48:51;;;;;;;13.53;10.50;;;9.20;61.60;;;;;;5050396;28;20258;-47
2021/10/11 04:51:17;;;;;;;16.07;11.03;;;9.30;60.90;;;;;;5051700;28;20242;-47
2021/10/11 04:53:42;;;;;;;16.80;9.67;;;9.50;60.50;;;;;;5050669;28;20189;-45
2021/10/11 04:56:08;;;;;;;11.30;8.63;;;9.50;59.90;;;;;;5051300;28;20809;-45
2021/10/11 04:58:34;;;;;;;15.47;9.80;;;9.50;59.10;;;;;;5049182;28;20524;-44
2021/10/11 05:00:59;;;;;;;12.37;9.07;;;9.50;59.00;;;;;;5048636;28;20802;-44
2021/10/11 05:03:25;;;;;;;12.17;9.57;;;9.60;58.90;;;;;;5051142;28;20188;-45
2021/10/11 05:05:51;;;;;;;10.80;9.37;;;9.60;58.50;;;;;;5052733;28;20196;-46
2021/10/11 05:08:16;;;;;;;10.33;8.90;;;9.70;58.50;;;;;;5055514;28;20299;-44
2021/10/11 05:10:42;;;;;;;11.90;9.50;;;9.70;58.30;;;;;;5054397;28;20203;-44
2021/10/11 05:13:07;;;;;;;12.10;10.03;;;9.60;57.90;;;;;;5054690;28;20220;-44
2021/10/11 05:15:33;;;;;;;13.30;10.03;;;9.60;58.10;;;;;;5054060;28;20244;-44
2021/10/11 05:17:58;;;;;;;13.83;11.10;;;9.70;58.10;;;;;;5054873;28;20197;-45
2021/10/11 05:20:26;;;;;;;12.30;10.77;;;9.70;58.00;;;;;;5054345;28;20200;-44
2021/10/11 05:22:52;;;;;;;16.30;12.90;;;9.70;57.80;;;;;;5054853;28;20203;-45
2021/10/11 05:25:17;;;;;;;19.63;12.47;;;9.70;57.60;;;;;;5054071;28;20419;-49
2021/10/11 05:27:43;;;;;;;14.23;11.87;;;9.80;57.50;;;;;;5053134;28;20427;-46
2021/10/11 05:30:09;;;;;;;11.00;9.90;;;9.70;57.20;;;;;;5053821;28;20303;-45
2021/10/11 05:32:35;;;;;;;10.93;9.67;;;9.70;57.10;;;;;;5054603;28;20184;-46
2021/10/11 05:35:02;;;;;;;9.83;8.83;;;9.80;56.90;;;;;;5053830;28;20541;-45
2021/10/11 05:37:29;;;;;;;11.43;10.20;;;9.70;56.70;;;;;;5054446;28;20526;-45
2021/10/11 05:39:54;;;;;;;11.70;10.30;;;9.70;56.90;;;;;;5053577;28;20430;-45
2021/10/11 05:42:20;;;;;;;13.93;11.13;;;9.70;57.00;;;;;;5054546;28;20427;-45
2021/10/11 05:44:46;;;;;;;13.03;10.40;;;9.30;57.40;;;;;;5053941;28;20216;-46
2021/10/11 05:47:12;;;;;;;14.43;10.43;;;9.00;58.90;;;;;;5054393;28;20193;-45
2021/10/11 05:49:38;;;;;;;12.30;11.00;;;8.50;60.00;;;;;;5053299;28;20469;-45
2021/10/11 05:52:04;;;;;;;13.10;10.37;;;8.50;61.00;;;;;;5052538;28;20233;-45
2021/10/11 05:54:30;;;;;;;14.83;10.67;;;8.20;61.60;;;;;;5053728;28;20211;-48
2021/10/11 05:56:55;;;;;;;12.50;9.77;;;8.50;61.60;;;;;;5052292;28;20518;-47
2021/10/11 05:59:21;;;;;;;14.60;10.57;;;8.70;60.50;;;;;;5053546;28;20193;-45
2021/10/11 06:01:47;;;;;;;14.10;9.77;;;8.70;60.00;;;;;;5054339;28;20200;-49
2021/10/11 06:04:12;;;;;;;14.43;9.23;;;8.80;59.80;;;;;;5053782;28;20561;-46
2021/10/11 06:06:38;;;;;;;14.63;9.40;;;8.80;59.80;;;;;;5053917;28;20242;-47
2021/10/11 06:09:04;;;;;;;10.40;9.03;;;9.00;59.40;;;;;;5053050;28;20193;-46
2021/10/11 06:11:30;;;;;;;14.00;9.53;;;9.10;59.00;;;;;;5053969;28;20216;-45
2021/10/11 06:13:55;;;;;;;12.07;9.17;;;9.20;58.80;;;;;;5053157;28;20423;-46
2021/10/11 06:16:21;;;;;;;13.03;10.13;;;9.00;59.30;;;;;;5053272;28;20236;-47
2021/10/11 06:18:46;;;;;;;13.67;10.57;;;9.00;59.70;;;;;;5050936;28;20189;-45
2021/10/11 06:21:12;;;;;;;10.90;9.60;;;8.90;60.00;;;;;;5036134;28;20196;-45
2021/10/11 06:23:37;;;;;;;12.80;10.47;;;8.50;60.50;;;;;;5053426;28;20192;-45
2021/10/11 06:26:03;;;;;;;11.40;9.57;;;8.30;62.20;;;;;;5053436;28;20609;-45
2021/10/11 06:28:29;;;;;;;11.43;9.97;;;8.50;63.00;;;;;;5053339;28;20203;-47
2021/10/11 06:30:55;;;;;;;12.10;9.80;;;8.90;62.40;;;;;;5052917;28;20954;-46
2021/10/11 06:33:22;;;;;;;13.07;10.33;;;9.10;61.10;;;;;;5053442;28;20625;-46
2021/10/11 06:35:49;;;;;;;12.87;11.40;;;9.40;60.80;;;;;;5052832;28;20506;-45
2021/10/11 06:38:15;;;;;;;11.93;9.70;;;9.70;60.10;;;;;;5053484;28;20427;-45
2021/10/11 06:40:42;;;;;;;13.50;10.33;;;9.90;59.40;;;;;;5052527;28;21190;-45
2021/10/11 06:43:08;;;;;;;12.60;9.80;;;10.10;58.20;;;;;;5053110;28;20197;-45
2021/10/11 06:45:33;;;;;;;14.17;10.60;;;10.00;57.40;;;;;;5051419;28;20501;-45
2021/10/11 06:47:59;;;;;;;16.63;10.93;;;10.10;57.90;;;;;;5053180;28;20193;-46
2021/10/11 06:50:25;;;;;;;15.40;11.60;;;10.10;57.50;;;;;;5051986;28;20236;-45
2021/10/11 06:52:50;;;;;;;17.67;10.73;;;9.90;58.30;;;;;;5053105;28;20197;-45
2021/10/11 06:55:16;;;;;;;12.67;10.13;;;9.70;59.50;;;;;;5052704;28;20683;-45
2021/10/11 06:57:42;;;;;;;11.40;10.20;;;9.70;59.60;;;;;;5051291;28;20200;-45
2021/10/11 07:00:08;;;;;;;11.57;10.37;;;9.50;59.70;;;;;;5051912;28;20558;-45
2021/10/11 07:02:34;;;;;;;20.30;10.43;;;9.70;60.10;;;;;;5053180;28;20211;-45
2021/10/11 07:05:08;;;;;;;19.50;10.20;;;10.00;59.00;;;;;;5052500;28;20934;-46
2021/10/11 07:07:34;;;;;;;13.93;11.07;;;10.30;58.40;;;;;;5053294;28;20278;-46
2021/10/11 07:10:00;;;;;;;12.93;10.20;;;10.50;58.20;;;;;;5051700;28;20431;-45
2021/10/11 07:12:25;;;;;;;12.00;10.23;;;10.80;58.20;;;;;;5051114;28;20476;-46
2021/10/11 07:14:51;;;;;;;15.77;11.87;;;10.90;58.30;;;;;;5052156;28;20228;-46
2021/10/11 07:17:17;;;;;;;16.50;11.10;;;11.00;57.70;;;;;;5053044;28;20199;-46
2021/10/11 07:19:46;;;;;;;12.73;11.37;;;11.20;57.60;;;;;;5051515;28;20628;-45
2021/10/11 07:22:13;;;;;;;14.57;12.07;;;11.50;57.20;;;;;;5052605;28;20204;-46
2021/10/11 07:24:39;;;;;;;16.13;12.03;;;11.80;56.90;;;;;;5051945;28;20431;-46
2021/10/11 07:27:05;;;;;;;13.23;11.83;;;12.00;56.60;;;;;;5052177;28;20416;-46
2021/10/11 07:29:30;;;;;;;14.37;12.37;;;12.20;56.50;;;;;;5051365;28;20275;-46
2021/10/11 07:31:56;;;;;;;14.60;12.27;;;12.10;55.70;;;;;;5052441;28;20227;-46
2021/10/11 07:34:22;;;;;;;15.57;12.40;;;11.90;57.10;;;;;;5051509;28;20184;-46
2021/10/11 07:36:48;;;;;;;14.23;12.57;;;11.80;57.50;;;;;;5052470;28;20251;-47
2021/10/11 07:39:13;;;;;;;16.33;12.17;;;11.60;58.00;;;;;;5049636;28;20887;-46
2021/10/11 07:41:39;;;;;;;15.20;12.80;;;11.60;57.90;;;;;;5052318;28;20645;-46
2021/10/11 07:44:05;;;;;;;18.70;13.87;;;11.70;57.90;;;;;;5051712;28;20254;-45
2021/10/11 07:46:30;;;;;;;12.13;10.90;;;11.80;57.90;;;;;;5052088;28;20200;-45
2021/10/11 07:48:56;;;;;;;15.90;12.07;;;12.00;57.50;;;;;;5051183;28;20232;-46
2021/10/11 07:51:22;;;;;;;14.50;11.90;;;12.10;57.00;;;;;;5052222;28;20192;-48
2021/10/11 07:53:47;;;;;;;17.77;12.33;;;12.20;57.30;;;;;;5051663;28;20204;-45
2021/10/11 07:56:13;;;;;;;16.90;13.40;;;11.90;57.90;;;;;;5052126;28;20227;-46
2021/10/11 07:58:39;;;;;;;13.40;10.77;;;12.10;58.00;;;;;;5049267;28;20195;-45
2021/10/11 08:01:04;;;;;;;17.80;12.43;;;12.50;57.40;;;;;;5051893;28;20196;-47
2021/10/11 08:03:30;;;;;;;15.60;13.03;;;12.40;56.70;;;;;;5051792;28;20218;-46
2021/10/11 08:05:56;;;;;;;17.80;13.33;;;12.50;57.40;;;;;;5049616;28;20235;-45
2021/10/11 08:08:21;;;;;;;15.00;12.53;;;12.50;57.20;;;;;;5051339;28;20203;-47
2021/10/11 08:10:47;;;;;;;15.10;13.00;;;12.80;57.90;;;;;;5051276;28;20279;-46
2021/10/11 08:13:13;;;;;;;16.33;12.80;;;13.00;57.30;;;;;;5051790;28;20226;-46
2021/10/11 08:15:38;;;;;;;16.00;12.53;;;13.30;56.70;;;;;;5051012;28;20697;-46
2021/10/11 08:18:04;;;;;;;17.83;12.83;;;13.60;56.50;;;;;;5051877;28;20423;-46
2021/10/11 08:20:30;;;;;;;17.30;12.87;;;13.80;55.30;;;;;;5050722;28;20254;-46
2021/10/11 08:22:55;;;;;;;15.53;13.13;;;14.00;54.90;;;;;;5051522;28;20192;-47
2021/10/11 08:25:22;;;;;;;17.53;13.20;;;14.10;54.60;;;;;;5050995;28;20196;-47
2021/10/11 08:27:48;;;;;;;16.27;13.13;;;14.20;54.60;;;;;;5051516;28;20648;-46
2021/10/11 08:30:14;;;;;;;17.43;11.70;;;14.40;54.10;;;;;;5050602;28;20415;-46
2021/10/11 08:32:40;;;;;;;17.67;13.40;;;14.50;54.10;;;;;;5049656;28;20188;-47
2021/10/11 08:35:06;;;;;;;17.93;13.77;;;14.70;53.30;;;;;;5050793;28;20224;-46
2021/10/11 08:37:32;;;;;;;15.73;12.00;;;14.80;53.10;;;;;;5051321;28;20427;-46
2021/10/11 08:39:57;;;;;;;15.40;12.90;;;14.80;53.70;;;;;;5051877;28;20446;-46
2021/10/11 08:42:23;;;;;;;17.77;13.57;;;14.90;53.70;;;;;;5058037;28;20199;-47
2021/10/11 08:44:49;;;;;;;13.93;12.43;;;14.90;53.10;;;;;;5057691;28;20191;-46
2021/10/11 08:47:16;;;;;;;13.63;12.00;;;15.00;52.80;;;;;;5057813;28;20238;-46
2021/10/11 08:49:44;;;;;;;14.20;12.40;;;15.10;52.40;;;;;;5057130;28;20878;-47
2021/10/11 08:52:10;;;;;;;15.07;13.33;;;15.20;52.20;;;;;;5058211;28;20441;-47
2021/10/11 08:54:38;;;;;;;16.20;13.50;;;15.30;51.90;;;;;;5057281;28;20682;-46
2021/10/11 08:57:05;;;;;;;14.67;12.73;;;15.50;51.70;;;;;;5054396;28;20796;-48
2021/10/11 08:59:31;;;;;;;16.80;13.30;;;15.60;51.50;;;;;;5056988;28;20427;-46
2021/10/11 09:02:06;;;;;;;18.10;14.60;;;15.70;51.30;;;;;;5057881;28;20940;-47
2021/10/11 09:04:32;;;;;;;18.97;13.60;;;15.80;51.00;;;;;;5057130;28;20589;-46
2021/10/11 09:07:06;;;;;;;18.70;14.43;;;16.00;50.80;;;;;;5057902;28;20492;-46
2021/10/11 09:09:45;;;;;;;13.97;11.60;;;16.10;50.60;;;;;;5057105;28;20470;-47
2021/10/11 09:12:17;;;;;;;15.40;12.07;;;16.10;50.60;;;;;;5057728;28;20441;-46
2021/10/11 09:14:46;;;;;;;14.50;13.00;;;16.10;50.30;;;;;;5056882;28;20496;-46
2021/10/11 09:17:22;;;;;;;18.50;12.93;;;16.30;50.20;;;;;;5057760;28;20926;-46
2021/10/11 09:19:57;;;;;;;17.33;11.90;;;16.50;49.70;;;;;;5057029;28;20500;-46
2021/10/11 09:22:36;;;;;;;14.83;12.10;;;16.60;49.70;;;;;;5057715;28;20525;-47
2021/10/11 09:25:03;;;;;;;16.57;12.70;;;16.60;49.50;;;;;;5055395;28;20418;-46
2021/10/11 09:27:28;;;;;;;14.60;12.77;;;16.70;49.00;;;;;;5057614;28;20457;-47
2021/10/11 09:29:54;;;;;;;16.37;13.53;;;16.80;49.00;;;;;;5056874;28;20451;-47
2021/10/11 09:32:30;;;;;;;16.27;12.53;;;16.90;49.00;;;;;;5057815;28;20193;-46
2021/10/11 09:35:14;;;;;;;16.57;13.03;;;17.00;48.30;;;;;;5056863;28;20667;-47
2021/10/11 09:37:41;;;;;;;15.07;13.50;;;17.10;48.80;;;;;;5057557;28;20422;-46
2021/10/11 09:40:09;;;;;;;15.07;11.87;;;17.00;48.30;;;;;;5056541;28;20465;-47
2021/10/11 09:42:35;;;;;;;15.87;12.97;;;17.20;48.60;;;;;;5057413;28;20450;-48
2021/10/11 09:45:03;;;;;;;15.53;13.03;;;17.30;47.80;;;;;;5057315;28;20918;-47
2021/10/11 09:50:05;;;;;;;15.97;14.23;;;17.20;47.80;;;;;;5055092;28;20470;-51
2021/10/11 09:52:31;;;;;;;17.30;13.07;;;17.40;47.80;;;;;;5053823;28;20434;-48
2021/10/11 09:54:57;;;;;;;15.40;13.80;;;17.40;47.70;;;;;;5053669;28;20985;-46
2021/10/11 09:57:23;;;;;;;17.10;13.83;;;17.50;47.50;;;;;;5052478;28;20786;-46
2021/10/11 09:59:50;;;;;;;16.07;14.30;;;17.60;47.50;;;;;;5053426;28;20540;-46
2021/10/11 10:02:20;;;;;;;16.07;13.20;;;17.70;47.60;;;;;;5054120;28;20438;-46
2021/10/11 10:04:47;;;;;;;17.30;13.10;;;17.70;47.20;;;;;;5053437;28;20964;-46
2021/10/11 10:07:16;;;;;;;17.57;13.30;;;17.90;47.40;;;;;;5054257;28;20423;-47
2021/10/11 10:09:49;;;;;;;16.97;13.73;;;18.00;47.60;;;;;;5053284;28;20542;-47
2021/10/11 10:12:15;;;;;;;16.13;13.13;;;18.10;47.20;;;;;;5053824;28;20496;-48
2021/10/11 10:14:40;;;;;;;14.60;13.17;;;18.20;47.10;;;;;;5053329;28;20844;-46
2021/10/11 10:17:09;;;;;;;17.83;13.70;;;18.30;47.20;;;;;;5050703;28;20442;-47
2021/10/11 10:19:39;;;;;;;15.00;13.27;;;18.40;46.80;;;;;;5034082;28;20205;-51
2021/10/11 10:22:17;;;;;;;15.10;12.70;;;18.50;45.60;;;;;;5047448;28;20440;-48
2021/10/11 10:24:43;;;;;;;14.60;12.93;;;18.60;45.90;;;;;;5050142;28;20438;-46
2021/10/11 10:27:12;;;;;;;16.63;13.03;;;18.80;46.60;;;;;;5052405;28;20459;-51
2021/10/11 10:29:48;;;;;;;14.50;13.00;;;19.10;45.30;;;;;;5051480;28;20500;-47
2021/10/11 10:32:16;;;;;;;15.60;12.73;;;19.20;45.10;;;;;;5051683;28;20485;-47
2021/10/11 10:34:45;;;;;;;14.53;12.00;;;19.20;45.30;;;;;;5046390;28;20924;-47
2021/10/11 10:37:13;;;;;;;15.37;12.97;;;19.30;45.10;;;;;;5035427;28;20518;-47
2021/10/11 10:39:45;;;;;;;14.70;13.10;;;19.50;46.00;;;;;;5051775;28;20443;-47
2021/10/11 10:42:29;;;;;;;15.40;12.33;;;19.50;44.70;;;;;;5051759;28;20453;-49
2021/10/11 10:44:57;;;;;;;18.63;12.10;;;19.70;44.90;;;;;;5047608;28;20874;-47
2021/10/11 10:47:34;;;;;;;13.57;12.17;;;19.80;43.30;;;;;;5048994;28;20475;-47
2021/10/11 10:49:59;;;;;;;16.33;13.90;;;19.90;43.50;;;;;;5048277;28;21077;-48
2021/10/11 10:52:25;;;;;;;15.90;13.37;;;20.00;43.20;;;;;;5052962;28;20518;-49
2021/10/11 10:54:55;;;;;;;14.83;13.10;;;20.10;42.90;;;;;;5048093;28;20501;-50
2021/10/11 10:57:23;;;;;;;13.83;12.30;;;20.10;42.80;;;;;;5051935;28;20189;-47
2021/10/11 10:59:54;;;;;;;15.73;13.33;;;20.30;43.30;;;;;;5051565;28;20442;-48
2021/10/11 11:02:20;;;;;;;14.93;13.30;;;20.40;44.00;;;;;;5035080;28;20857;-47
2021/10/11 11:04:55;;;;;;;17.00;12.50;;;20.50;43.30;;;;;;5051863;28;20518;-49
2021/10/11 11:07:28;;;;;;;14.97;13.27;;;20.70;42.80;;;;;;5048877;28;20442;-47
2021/10/11 11:09:55;;;;;;;15.50;13.80;;;20.90;41.60;;;;;;5051449;28;20431;-48
2021/10/11 11:12:33;;;;;;;19.30;14.63;;;20.70;42.10;;;;;;5047238;28;20487;-44
2021/10/11 11:15:05;;;;;;;17.43;14.83;;;20.80;42.60;;;;;;5049649;28;20474;-47
2021/10/11 11:17:36;;;;;;;14.90;13.30;;;20.90;41.70;;;;;;5052727;28;20465;-47
2021/10/11 11:20:10;;;;;;;19.77;14.73;;;20.80;42.40;;;;;;5051224;28;20435;-49
2021/10/11 11:22:35;;;;;;;18.07;13.57;;;20.90;41.70;;;;;;5052198;28;20934;-48
2021/10/11 11:25:03;;;;;;;19.73;14.27;;;20.90;41.70;;;;;;5051903;28;20454;-50
2021/10/11 11:27:40;;;;;;;15.50;13.80;;;21.00;41.50;;;;;;5051854;28;20196;-47
2021/10/11 11:30:15;;;;;;;22.47;16.07;;;21.10;42.40;;;;;;5051432;28;20921;-48
2021/10/11 11:32:53;;;;;;;16.70;14.93;;;21.00;41.60;;;;;;5052420;28;20461;-47
2021/10/11 11:35:21;;;;;;;20.70;14.67;;;21.00;41.40;;;;;;5051215;28;20569;-49
2021/10/11 11:37:49;;;;;;;19.83;15.40;;;20.90;41.70;;;;;;5051417;28;20439;-50
2021/10/11 11:40:18;;;;;;;21.90;16.07;;;21.00;41.40;;;;;;5048636;28;20918;-46
2021/10/11 11:42:46;;;;;;;21.83;14.60;;;21.10;41.80;;;;;;5051994;28;20442;-47
2021/10/11 11:45:12;;;;;;;17.90;14.90;;;21.20;41.80;;;;;;5051345;28;20435;-46
2021/10/11 11:47:37;;;;;;;20.37;15.50;;;21.20;42.10;;;;;;5045983;28;20530;-47
2021/10/11 11:50:16;;;;;;;20.73;16.03;;;21.40;42.10;;;;;;5050539;28;20236;-49
2021/10/11 11:52:41;;;;;;;20.00;15.70;;;21.40;41.60;;;;;;5042786;28;20748;-49
2021/10/11 11:55:08;;;;;;;17.00;14.10;;;21.40;41.20;;;;;;5050760;28;20516;-51
2021/10/11 11:57:42;;;;;;;17.60;14.80;;;21.40;41.90;;;;;;5051736;28;20200;-49
2021/10/11 12:00:09;;;;;;;17.17;15.37;;;21.40;42.00;;;;;;5049864;28;20435;-50
2021/10/11 12:02:37;;;;;;;18.53;16.57;;;21.40;41.20;;;;;;5051954;28;20431;-47
2021/10/11 12:05:03;;;;;;;20.50;13.80;;;21.60;40.60;;;;;;5049147;28;20484;-50
2021/10/11 12:07:29;;;;;;;16.93;15.17;;;21.60;40.40;;;;;;5039135;28;20816;-52
2021/10/11 12:09:54;;;;;;;17.13;14.40;;;21.50;40.50;;;;;;5050463;28;20525;-51
2021/10/11 12:12:20;;;;;;;16.20;13.77;;;21.40;40.10;;;;;;5051449;28;20195;-51
2021/10/11 12:14:50;;;;;;;15.13;13.07;;;21.20;40.80;;;;;;5049250;28;20277;-51
2021/10/11 12:17:16;;;;;;;15.37;13.10;;;21.20;40.40;;;;;;5051561;28;20667;-47
2021/10/11 12:19:41;;;;;;;18.77;12.93;;;21.20;40.30;;;;;;5050638;28;20439;-47
2021/10/11 12:22:07;;;;;;;14.50;12.27;;;21.20;40.20;;;;;;5051239;28;20614;-48
2021/10/11 12:24:33;;;;;;;21.40;13.50;;;21.30;40.70;;;;;;5049076;28;20671;-47
2021/10/11 12:27:05;;;;;;;17.80;13.90;;;21.40;40.20;;;;;;5050078;28;20218;-47
2021/10/11 12:29:32;;;;;;;14.73;13.20;;;21.60;39.20;;;;;;5047658;28;20292;-48
2021/10/11 12:32:07;;;;;;;14.37;12.87;;;21.60;39.30;;;;;;5051140;28;20435;-47
2021/10/11 12:34:45;;;;;;;14.27;12.00;;;21.40;40.00;;;;;;5049092;28;20772;-48
2021/10/11 12:37:13;;;;;;;12.57;11.37;;;21.40;39.90;;;;;;5050185;28;20850;-49